Weather History for Gambell, AK

Change the Weather History Date:

Saturday, August 17, 2013

  Actual Average Record
Temperature  
Mean Temperature 44 °F -  
Max Temperature 50 °F 47 °F 57 °F (2007)
Min Temperature 37 °F 42 °F 37 °F (1998)
Degree Days  
Heating Degree Days 22    
Moisture  
Dew Point 41 °F    
Average Humidity 88    
Maximum Humidity 100    
Minimum Humidity 76    
Precipitation  
Precipitation 0.00 in - - ()
Sea Level Pressure  
Sea Level Pressure 29.84 in    
Wind  
Wind Speed 7 mph (South)    
Max Wind Speed 15 mph    
Max Gust Speed -    
Visibility 7 miles    
Events      
Averages and records for this station are not official NWS values.
T = Trace of Precipitation, MM = Missing Value Source: NWS Daily Summary

Daily Weather History Graph

Daily Weather History Graph

Search for Another Location

Airport:

Trip Planner

Search our weather history database for the weather conditions in past years. The results will help you decide how hot, cold, wet, or windy it might be!

Date:

Astronomy

Aug. 17, 2013 Rise Set
Actual Time 7:28 AM AKDT 11:31 PM AKDT
Civil Twilight 6:26 AM AKDT 12:32 AM AKDT
Nautical Twilight 4:34 AM AKDT 2:18 AM AKDT
Astronomical Twilight Sun does not rise Sun does not rise
Moon 9:33 PM AKDT (8/17) 2:59 AM AKDT (8/17)
Length of Visible Light 18h 05m
Length of Day
16h 03m
Waxing Gibbous, 85% of the Moon is Illuminated
Aug 17
Waxing Gibbous
Aug 20
Full
Aug 28
Last Quarter
Sep 5
New
Sep 12
First Quarter

Hourly Weather History & Observations

Time (AKDT) Temp. Windchill Dew Point Humidity Pressure Visibility Wind Dir Wind Speed Gust Speed Precip Events Conditions
12:16 AM 42.8 °F - 39.2 °F 87% 29.89 in 10.0 mi Calm Calm - N/A   Clear
12:36 AM 42.8 °F - 39.2 °F 87% 29.89 in 10.0 mi Calm Calm - N/A   Clear
12:56 AM 42.8 °F - 39.2 °F 87% 29.89 in 10.0 mi Calm Calm - N/A   Clear
1:16 AM 42.8 °F - 39.2 °F 87% 29.89 in 10.0 mi Calm Calm - N/A   Clear
1:36 AM 42.8 °F - 39.2 °F 87% 29.89 in 10.0 mi Calm Calm - N/A   Clear
1:56 AM 42.8 °F - 39.2 °F 87% 29.89 in 10.0 mi Calm Calm - N/A   Clear
2:16 AM 42.8 °F - 39.2 °F 87% 29.89 in 10.0 mi Calm Calm - N/A   Clear
2:36 AM 42.8 °F - 41.0 °F 93% 29.89 in 10.0 mi Calm Calm - N/A   Clear
2:56 AM 42.8 °F 41.1 °F 41.0 °F 93% 29.89 in 10.0 mi SSW 3.5 mph - N/A   Clear
3:16 AM 42.8 °F 40.1 °F 39.2 °F 87% 29.89 in 10.0 mi SSW 4.6 mph - N/A   Clear
3:36 AM 41.0 °F 38.0 °F 39.2 °F 93% 29.89 in 10.0 mi South 4.6 mph - N/A   Mostly Cloudy
3:56 AM 39.2 °F 35.9 °F 37.4 °F 93% 29.89 in 7.0 mi South 4.6 mph - N/A   Scattered Clouds
4:16 AM 39.2 °F 34.2 °F 37.4 °F 93% 29.88 in 8.0 mi South 6.9 mph - N/A   Clear
4:36 AM 39.2 °F 34.2 °F 37.4 °F 93% 29.88 in 8.0 mi South 6.9 mph - N/A   Clear
4:56 AM 39.2 °F 33.6 °F 37.4 °F 93% 29.88 in 7.0 mi South 8.1 mph - N/A   Clear
5:16 AM 39.2 °F 33.6 °F 37.4 °F 93% 29.88 in 7.0 mi South 8.1 mph - N/A   Clear
5:36 AM 39.2 °F 33.6 °F 37.4 °F 93% 29.88 in 7.0 mi South 8.1 mph - N/A   Clear
5:56 AM 39.2 °F 33.6 °F 37.4 °F 93% 29.87 in 7.0 mi South 8.1 mph - N/A   Clear
6:16 AM 37.4 °F 30.8 °F 35.6 °F 93% 29.87 in 5.0 mi South 9.2 mph - N/A   Mostly Cloudy
6:36 AM 39.2 °F 32.5 °F 37.4 °F 93% 29.87 in 5.0 mi South 10.4 mph - N/A   Overcast
6:56 AM 39.2 °F 33.6 °F 39.2 °F 100% 29.87 in 8.0 mi South 8.1 mph - N/A   Overcast
7:16 AM 39.2 °F 32.5 °F 37.4 °F 93% 29.87 in 6.0 mi South 10.4 mph - N/A   Overcast
7:36 AM 39.2 °F 32.5 °F 37.4 °F 93% 29.87 in 5.0 mi South 10.4 mph - N/A   Overcast
7:56 AM 39.2 °F 33.0 °F 37.4 °F 93% 29.87 in 4.0 mi South 9.2 mph - N/A   Overcast
8:16 AM 39.2 °F 33.0 °F 39.2 °F 100% 29.87 in 0.2 mi South 9.2 mph - N/A   Overcast
8:36 AM 41.0 °F 35.2 °F 39.2 °F 93% 29.87 in 0.2 mi South 9.2 mph - N/A   Overcast
8:56 AM 41.0 °F 35.8 °F 39.2 °F 93% 29.87 in 0.2 mi South 8.1 mph - N/A   Overcast
9:16 AM 42.8 °F 37.5 °F 39.2 °F 87% 29.86 in 0.5 mi South 9.2 mph - N/A   Overcast
9:36 AM 42.8 °F 37.5 °F 41.0 °F 93% 29.86 in 5.0 mi South 9.2 mph - N/A   Overcast
9:56 AM 42.8 °F 37.0 °F 42.8 °F 100% 29.86 in 10.0 mi South 10.4 mph - N/A   Overcast
10:16 AM 42.8 °F 37.5 °F 39.2 °F 87% 29.85 in 10.0 mi South 9.2 mph - N/A   Partly Cloudy
10:36 AM 42.8 °F 38.0 °F 41.0 °F 93% 29.85 in 10.0 mi South 8.1 mph - N/A   Clear
10:56 AM 42.8 °F 37.5 °F 41.0 °F 93% 29.85 in 10.0 mi South 9.2 mph - N/A   Clear
11:16 AM 44.6 °F 39.7 °F 41.0 °F 87% 29.85 in 10.0 mi South 9.2 mph - N/A   Clear
11:36 AM 44.6 °F 39.7 °F 41.0 °F 87% 29.85 in 10.0 mi South 9.2 mph - N/A   Clear
11:56 AM 44.6 °F 39.7 °F 41.0 °F 87% 29.85 in 10.0 mi South 9.2 mph - N/A   Clear
12:16 PM 44.6 °F 39.7 °F 41.0 °F 87% 29.84 in 10.0 mi South 9.2 mph - N/A   Clear
12:36 PM 46.4 °F 41.5 °F 42.8 °F 87% 29.84 in 10.0 mi South 10.4 mph - N/A   Clear
12:56 PM 46.4 °F 41.5 °F 41.0 °F 81% 29.84 in 10.0 mi South 10.4 mph - N/A   Clear
1:16 PM 46.4 °F 41.1 °F 42.8 °F 87% 29.84 in 10.0 mi South 11.5 mph - N/A   Clear
1:36 PM 48.2 °F - 42.8 °F 82% 29.84 in 10.0 mi South 12.7 mph - N/A   Clear
1:56 PM 46.4 °F 41.1 °F 42.8 °F 87% 29.83 in 10.0 mi South 11.5 mph - N/A   Clear
2:16 PM 48.2 °F - 42.8 °F 82% 29.83 in 10.0 mi South 12.7 mph - N/A   Clear
2:36 PM 48.2 °F - 42.8 °F 82% 29.83 in 10.0 mi South 13.8 mph - N/A   Clear
2:56 PM 48.2 °F - 42.8 °F 82% 29.83 in 10.0 mi South 11.5 mph - N/A   Clear
3:16 PM 48.2 °F - 42.8 °F 82% 29.83 in 10.0 mi South 12.7 mph - N/A   Clear
3:36 PM 48.2 °F - 42.8 °F 82% 29.82 in 10.0 mi South 10.4 mph - N/A   Clear
3:56 PM 48.2 °F - 42.8 °F 82% 29.82 in 10.0 mi South 12.7 mph - N/A   Clear
4:16 PM 48.2 °F - 44.6 °F 87% 29.81 in 10.0 mi South 12.7 mph - N/A   Clear
4:36 PM 50.0 °F - 42.8 °F 76% 29.81 in 10.0 mi South 12.7 mph - N/A   Clear
4:56 PM 48.2 °F - 42.8 °F 82% 29.81 in 10.0 mi South 12.7 mph - N/A   Clear
5:16 PM 50.0 °F - 42.8 °F 76% 29.80 in 10.0 mi South 12.7 mph - N/A   Clear
5:36 PM 48.2 °F - 42.8 °F 82% 29.80 in 10.0 mi South 15.0 mph - N/A   Clear
5:56 PM 50.0 °F - 44.6 °F 82% 29.80 in 10.0 mi South 13.8 mph - N/A   Clear
6:16 PM 48.2 °F - 42.8 °F 82% 29.80 in 10.0 mi South 12.7 mph - N/A   Clear
6:36 PM 48.2 °F - 42.8 °F 82% 29.80 in 10.0 mi South 13.8 mph - N/A   Clear
6:56 PM 48.2 °F - 42.8 °F 82% 29.79 in 10.0 mi South 12.7 mph - N/A   Clear
7:16 PM 48.2 °F - 42.8 °F 82% 29.79 in 10.0 mi South 13.8 mph - N/A   Clear
7:36 PM 48.2 °F - 42.8 °F 82% 29.79 in 10.0 mi South 13.8 mph - N/A   Clear
7:56 PM 46.4 °F 40.4 °F 42.8 °F 87% 29.79 in 10.0 mi South 13.8 mph - N/A   Partly Cloudy
8:16 PM 46.4 °F 40.7 °F 41.0 °F 81% 29.79 in 10.0 mi South 12.7 mph - N/A   Mostly Cloudy
8:36 PM 46.4 °F 40.1 °F 41.0 °F 81% 29.78 in 2.0 mi South 15.0 mph - N/A   Overcast
8:56 PM 44.6 °F 38.4 °F 42.8 °F 93% 29.78 in 0.2 mi South 12.7 mph - N/A   Overcast
9:16 PM 44.6 °F 38.4 °F 42.8 °F 93% 29.78 in 0.2 mi South 12.7 mph - N/A   Overcast
9:36 PM 44.6 °F 38.4 °F 41.0 °F 87% 29.77 in 0.2 mi South 12.7 mph - N/A   Overcast
9:56 PM 42.8 °F 36.2 °F 41.0 °F 93% 29.77 in 0.2 mi South 12.7 mph - N/A   Overcast
10:16 PM 44.6 °F 38.4 °F 42.8 °F 93% 29.77 in 0.2 mi South 12.7 mph - N/A   Overcast
10:36 PM 44.6 °F 38.1 °F 42.8 °F 93% 29.77 in 0.2 mi South 13.8 mph - N/A   Overcast
10:56 PM 44.6 °F 38.4 °F 42.8 °F 93% 29.76 in 0.2 mi South 12.7 mph - N/A   Overcast
11:16 PM 44.6 °F 38.1 °F 42.8 °F 93% 29.77 in 0.2 mi South 13.8 mph - N/A   Overcast
11:36 PM 44.6 °F 38.1 °F 42.8 °F 93% 29.77 in 0.2 mi SSW 13.8 mph - N/A   Overcast
11:56 PM 44.6 °F 38.1 °F 42.8 °F 93% 29.76 in 0.2 mi South 13.8 mph - N/A   Overcast